San Diego, California
Current Conditions -  °F | °C
As of 7:51 AM on Saturday 22 Nov 2014 (Local Time) from KSAN Reporting Station
Scattered Clouds Scattered Clouds  
Wind Chill: 59°   Ceiling: Unl
Heat Index: 59°   Visibility: 10mi
Dew Point: 48°   Wind: 0mph
Humidity: 67%   Direction: NA
Pressure: 30.11"   Gusts: NA
Location:  32.72°N, 117.16°W
Report Text: KSAN 221551Z 00000KT 10SM SCT250 15/09 A3011 RMK AO2 SLP197 T01500089
Loading
Personal Weather Stations






























Interactive Weather Map New forecast layout! Learn more

10-Day Weather Forecast

Advertisements
Track Severe Weather on mobile